createdAt,value
2022-11-29T00:00:05.057Z,2.40
2022-11-29T00:01:05.065Z,2.60
2022-11-29T00:02:05.275Z,2.60
2022-11-29T00:03:05.175Z,3.00
2022-11-29T00:04:05.081Z,3.00
2022-11-29T00:05:05.081Z,2.80
2022-11-29T00:06:05.087Z,2.90
2022-11-29T00:07:05.116Z,3.30
2022-11-29T00:08:05.096Z,3.20
2022-11-29T00:09:05.108Z,3.20
2022-11-29T00:10:05.107Z,2.70
2022-11-29T00:11:05.122Z,2.60
2022-11-29T00:12:05.123Z,2.90
2022-11-29T00:13:05.119Z,2.70
2022-11-29T00:14:05.229Z,2.40
2022-11-29T00:15:05.131Z,2.50
2022-11-29T00:16:05.139Z,2.20
2022-11-29T00:17:05.186Z,2.60
2022-11-29T00:18:05.149Z,2.40
2022-11-29T00:19:05.152Z,2.60
2022-11-29T00:20:05.157Z,2.60
2022-11-29T00:21:05.160Z,2.80
2022-11-29T00:22:05.168Z,2.50
2022-11-29T00:23:05.187Z,2.70
2022-11-29T00:24:05.195Z,2.40
2022-11-29T00:25:05.178Z,2.60
2022-11-29T00:26:05.188Z,2.80
2022-11-29T00:27:05.190Z,2.60
2022-11-29T00:28:05.214Z,2.10
2022-11-29T00:29:05.197Z,2.40
2022-11-29T00:30:05.207Z,2.40
2022-11-29T00:31:05.238Z,2.40
2022-11-29T00:32:05.220Z,2.50
2022-11-29T00:33:05.217Z,2.70
2022-11-29T00:34:05.231Z,2.60
2022-11-29T00:35:09.437Z,2.80
2022-11-29T00:36:05.238Z,2.90
2022-11-29T00:37:05.235Z,3.10
2022-11-29T00:38:05.248Z,3.10
2022-11-29T00:39:05.270Z,2.70
2022-11-29T00:40:05.256Z,2.60
2022-11-29T00:41:05.259Z,2.70
2022-11-29T00:42:05.267Z,2.60
2022-11-29T00:43:05.281Z,2.40
2022-11-29T00:44:05.276Z,2.80
2022-11-29T00:45:05.277Z,2.40
2022-11-29T00:46:05.328Z,2.20
2022-11-29T00:47:05.288Z,2.20
2022-11-29T00:48:05.315Z,2.40
2022-11-29T00:49:05.297Z,2.40
2022-11-29T00:50:05.307Z,2.40
2022-11-29T00:51:05.307Z,2.30
2022-11-29T00:52:05.319Z,2.50
2022-11-29T00:53:05.318Z,2.20
2022-11-29T00:54:05.327Z,2.20
2022-11-29T00:55:05.345Z,2.00
2022-11-29T00:56:05.335Z,2.10
2022-11-29T00:57:05.340Z,2.20
2022-11-29T00:58:05.346Z,2.20
2022-11-29T00:59:05.347Z,3.00
2022-11-29T01:00:05.359Z,3.40
2022-11-29T01:01:05.435Z,3.50
2022-11-29T01:02:05.440Z,3.10
2022-11-29T01:03:05.369Z,3.30
2022-11-29T01:04:05.379Z,3.50
2022-11-29T01:05:05.380Z,3.60
2022-11-29T01:06:05.385Z,3.90
2022-11-29T01:07:05.388Z,4.00
2022-11-29T01:08:05.397Z,4.40
2022-11-29T01:09:05.401Z,4.10
2022-11-29T01:10:05.407Z,4.00
2022-11-29T01:11:05.432Z,3.80
2022-11-29T01:12:05.420Z,2.50
2022-11-29T01:13:05.418Z,2.20
2022-11-29T01:14:05.452Z,2.20
2022-11-29T01:15:05.434Z,2.20
2022-11-29T01:16:05.437Z,2.20
2022-11-29T01:17:05.469Z,2.00
2022-11-29T01:18:05.448Z,2.30
2022-11-29T01:19:05.450Z,3.10
2022-11-29T01:20:05.463Z,3.30
2022-11-29T01:21:05.457Z,3.50
2022-11-29T01:22:05.467Z,3.50
2022-11-29T01:23:05.471Z,3.30
2022-11-29T01:24:05.478Z,3.50
2022-11-29T01:25:05.477Z,3.40
2022-11-29T01:26:05.487Z,3.50
2022-11-29T01:27:05.508Z,3.30
2022-11-29T01:28:05.497Z,3.30
2022-11-29T01:29:05.507Z,3.50
2022-11-29T01:30:05.509Z,3.80
2022-11-29T01:31:05.556Z,3.50
2022-11-29T01:32:05.571Z,3.90
2022-11-29T01:33:05.519Z,4.30
2022-11-29T01:34:05.529Z,4.70
2022-11-29T01:35:05.531Z,3.90
2022-11-29T01:36:05.542Z,4.10
2022-11-29T01:37:05.544Z,4.30
2022-11-29T01:38:05.551Z,4.40
2022-11-29T01:39:05.549Z,3.50
2022-11-29T01:40:05.557Z,3.90
2022-11-29T01:41:05.560Z,4.10
2022-11-29T01:42:05.569Z,4.00
2022-11-29T01:43:05.590Z,4.00
2022-11-29T01:44:05.587Z,4.20
2022-11-29T01:45:05.583Z,4.10
2022-11-29T01:46:05.681Z,4.20
2022-11-29T01:47:05.591Z,4.40
2022-11-29T01:48:05.600Z,4.30
2022-11-29T01:49:05.599Z,4.20
2022-11-29T01:50:05.610Z,4.30
2022-11-29T01:51:05.612Z,4.20
2022-11-29T01:52:05.629Z,4.60
2022-11-29T01:53:05.635Z,3.90
2022-11-29T01:54:05.629Z,4.30
2022-11-29T01:55:05.637Z,4.20
2022-11-29T01:56:05.694Z,4.10
2022-11-29T01:57:05.640Z,3.90
2022-11-29T01:58:05.672Z,4.60
2022-11-29T01:59:05.774Z,3.40
2022-11-29T02:00:05.665Z,3.70
2022-11-29T02:01:05.699Z,3.30
2022-11-29T02:02:05.729Z,3.10
2022-11-29T02:03:05.670Z,3.50
2022-11-29T02:04:05.679Z,3.30
2022-11-29T02:05:05.684Z,3.20
2022-11-29T02:06:05.727Z,3.70
2022-11-29T02:07:05.691Z,3.20
2022-11-29T02:08:05.704Z,3.10
2022-11-29T02:09:05.699Z,3.30
2022-11-29T02:10:05.710Z,3.30
2022-11-29T02:11:05.711Z,3.30
2022-11-29T02:12:05.721Z,3.20
2022-11-29T02:13:05.722Z,3.70
2022-11-29T02:14:05.747Z,3.70
2022-11-29T02:15:05.777Z,4.60
2022-11-29T02:16:05.785Z,4.10
2022-11-29T02:17:05.741Z,4.30
2022-11-29T02:18:05.752Z,4.70
2022-11-29T02:19:05.751Z,4.30
2022-11-29T02:20:05.760Z,4.50
2022-11-29T02:21:05.766Z,4.40
2022-11-29T02:22:05.771Z,4.50
2022-11-29T02:23:05.871Z,4.30
2022-11-29T02:24:05.779Z,4.00
2022-11-29T02:25:05.780Z,3.60
2022-11-29T02:26:05.789Z,3.90
2022-11-29T02:27:05.791Z,3.30
2022-11-29T02:28:05.800Z,3.00
2022-11-29T02:29:05.800Z,2.90
2022-11-29T02:30:05.813Z,2.70
2022-11-29T02:31:05.854Z,2.30
2022-11-29T02:32:05.820Z,2.80
2022-11-29T02:33:05.821Z,2.40
2022-11-29T02:34:05.830Z,2.60
2022-11-29T02:35:05.832Z,2.60
2022-11-29T02:36:05.843Z,2.50
2022-11-29T02:37:11.308Z,2.40
2022-11-29T02:38:05.847Z,2.30
2022-11-29T02:39:05.851Z,2.50
2022-11-29T02:40:05.858Z,2.30
2022-11-29T02:41:05.858Z,2.70
2022-11-29T02:42:05.902Z,2.70
2022-11-29T02:43:05.875Z,2.60
2022-11-29T02:44:05.877Z,2.50
2022-11-29T02:45:05.881Z,3.00
2022-11-29T02:46:05.950Z,2.90
2022-11-29T02:47:05.916Z,3.20
2022-11-29T02:48:05.901Z,3.20
2022-11-29T02:49:05.898Z,3.60
2022-11-29T02:50:05.907Z,3.60
2022-11-29T02:51:05.910Z,4.10
2022-11-29T02:52:05.921Z,4.30
2022-11-29T02:53:05.922Z,4.40
2022-11-29T02:54:05.929Z,4.20
2022-11-29T02:55:05.931Z,4.50
2022-11-29T02:56:05.937Z,4.10
2022-11-29T02:57:05.942Z,4.40
2022-11-29T02:58:05.951Z,4.60
2022-11-29T02:59:05.948Z,4.10
2022-11-29T03:00:05.958Z,4.40
2022-11-29T03:01:05.984Z,4.60
2022-11-29T03:02:06.017Z,4.30
2022-11-29T03:03:05.990Z,5.30
2022-11-29T03:04:05.977Z,8.00
2022-11-29T03:05:05.977Z,8.40
2022-11-29T03:06:05.991Z,5.90
2022-11-29T03:07:06.018Z,5.00
2022-11-29T03:08:06.013Z,5.30
2022-11-29T03:09:06.013Z,4.70
2022-11-29T03:10:06.008Z,4.80
2022-11-29T03:11:06.006Z,5.00
2022-11-29T03:12:06.017Z,4.00
2022-11-29T03:13:06.016Z,4.30
2022-11-29T03:14:06.022Z,3.50
2022-11-29T03:15:06.048Z,3.70
2022-11-29T03:16:06.087Z,3.60
2022-11-29T03:17:06.045Z,3.50
2022-11-29T03:18:06.043Z,3.20
2022-11-29T03:19:06.069Z,3.60
2022-11-29T03:20:06.052Z,3.90
2022-11-29T03:21:06.054Z,3.60
2022-11-29T03:22:06.071Z,3.60
2022-11-29T03:23:06.068Z,3.90
2022-11-29T03:24:06.072Z,4.20
2022-11-29T03:25:06.080Z,4.00
2022-11-29T03:26:06.081Z,3.70
2022-11-29T03:27:06.085Z,3.40
2022-11-29T03:28:06.102Z,3.80
2022-11-29T03:29:06.095Z,3.60
2022-11-29T03:30:06.117Z,3.70
2022-11-29T03:31:06.149Z,4.60
2022-11-29T03:32:06.110Z,4.50
2022-11-29T03:33:06.212Z,5.30
2022-11-29T03:34:06.120Z,7.40
2022-11-29T03:35:06.146Z,7.50
2022-11-29T03:36:06.137Z,5.80
2022-11-29T03:37:06.145Z,6.50
2022-11-29T03:38:06.139Z,16.00
2022-11-29T03:39:06.148Z,13.30
2022-11-29T03:40:06.150Z,35.00
2022-11-29T03:41:06.151Z,15.30
2022-11-29T03:42:06.160Z,8.70
2022-11-29T03:43:06.161Z,20.00
2022-11-29T03:44:06.177Z,33.30
2022-11-29T03:45:06.169Z,12.20
2022-11-29T03:46:06.260Z,7.50
2022-11-29T03:47:06.181Z,7.90
2022-11-29T03:48:06.193Z,7.20
2022-11-29T03:49:06.214Z,6.60
2022-11-29T03:50:06.196Z,7.20
2022-11-29T03:51:06.222Z,6.60
2022-11-29T03:52:06.206Z,7.10
2022-11-29T03:53:06.207Z,6.10
2022-11-29T03:54:06.217Z,6.60
2022-11-29T03:55:06.218Z,6.00
2022-11-29T03:56:06.228Z,7.80
2022-11-29T03:57:06.228Z,5.90
2022-11-29T03:58:06.234Z,9.90
2022-11-29T03:59:06.252Z,11.80
2022-11-29T04:00:06.245Z,7.80
2022-11-29T04:01:06.346Z,7.50
2022-11-29T04:02:06.254Z,18.00
2022-11-29T04:03:06.260Z,11.70
2022-11-29T04:04:06.269Z,9.90
2022-11-29T04:05:06.274Z,7.50
2022-11-29T04:06:06.271Z,9.00
2022-11-29T04:07:06.292Z,6.80
2022-11-29T04:08:06.291Z,7.00
2022-11-29T04:09:06.281Z,6.70
2022-11-29T04:10:06.291Z,6.40
2022-11-29T04:11:06.293Z,6.30
2022-11-29T04:12:06.302Z,6.00
2022-11-29T04:13:06.300Z,5.70
2022-11-29T04:14:06.307Z,5.40
2022-11-29T04:15:06.311Z,5.60
2022-11-29T04:16:06.375Z,11.00
2022-11-29T04:17:06.320Z,19.00
2022-11-29T04:18:06.327Z,24.50
2022-11-29T04:19:06.335Z,24.00
2022-11-29T04:20:06.336Z,27.20
2022-11-29T04:21:06.346Z,19.90
2022-11-29T04:22:06.346Z,14.30
2022-11-29T04:23:06.369Z,11.40
2022-11-29T04:24:06.355Z,15.10
2022-11-29T04:25:06.355Z,15.80
2022-11-29T04:26:06.367Z,14.50
2022-11-29T04:27:06.365Z,11.90
2022-11-29T04:28:06.373Z,13.50
2022-11-29T04:29:06.381Z,12.20
2022-11-29T04:30:06.385Z,8.20
2022-11-29T04:31:06.452Z,10.10
2022-11-29T04:32:06.390Z,9.50
2022-11-29T04:33:06.395Z,11.90
2022-11-29T04:34:06.397Z,12.20
2022-11-29T04:35:06.404Z,9.10
2022-11-29T04:36:06.410Z,9.20
2022-11-29T04:37:06.414Z,7.70
2022-11-29T04:38:06.414Z,8.20
2022-11-29T04:39:06.446Z,8.10
2022-11-29T04:40:06.423Z,9.70
2022-11-29T04:41:06.449Z,21.90
2022-11-29T04:42:06.435Z,19.80
2022-11-29T04:43:06.440Z,31.90
2022-11-29T04:44:06.443Z,22.50
2022-11-29T04:45:06.450Z,21.00
2022-11-29T04:46:06.516Z,21.50
2022-11-29T04:47:06.460Z,14.30
2022-11-29T04:48:06.461Z,14.30
2022-11-29T04:49:06.468Z,16.50
2022-11-29T04:50:06.475Z,8.10
2022-11-29T04:51:06.480Z,19.60
2022-11-29T04:52:06.479Z,14.60
2022-11-29T04:53:06.490Z,7.70
2022-11-29T04:54:06.488Z,14.40
2022-11-29T04:55:06.517Z,9.60
2022-11-29T04:56:06.502Z,6.90
2022-11-29T04:57:06.503Z,6.50
2022-11-29T04:58:06.510Z,5.50
2022-11-29T04:59:06.519Z,17.60
2022-11-29T05:00:06.517Z,13.80
2022-11-29T05:01:06.521Z,20.00
2022-11-29T05:02:06.569Z,7.40
2022-11-29T05:03:06.580Z,6.70
2022-11-29T05:04:06.533Z,12.40
2022-11-29T05:05:06.542Z,7.20
2022-11-29T05:06:06.542Z,6.10
2022-11-29T05:07:06.551Z,7.30
2022-11-29T05:08:06.549Z,6.80
2022-11-29T05:09:06.561Z,6.20
2022-11-29T05:10:06.563Z,13.00
2022-11-29T05:11:06.585Z,7.80
2022-11-29T05:12:06.570Z,7.30
2022-11-29T05:13:06.594Z,5.70
2022-11-29T05:14:06.584Z,10.90
2022-11-29T05:15:06.587Z,13.20
2022-11-29T05:16:06.644Z,5.00
2022-11-29T05:17:06.598Z,6.80
2022-11-29T05:18:06.597Z,8.00
2022-11-29T05:19:06.605Z,4.40
2022-11-29T05:20:06.606Z,3.80
2022-11-29T05:21:06.611Z,3.70
2022-11-29T05:22:06.615Z,2.70
2022-11-29T05:23:06.627Z,2.80
2022-11-29T05:24:06.624Z,2.60
2022-11-29T05:25:06.630Z,1.80
2022-11-29T05:26:06.635Z,3.40
2022-11-29T05:27:06.666Z,2.90
2022-11-29T05:28:09.991Z,6.30
2022-11-29T05:29:06.650Z,10.80
2022-11-29T05:30:06.657Z,13.70
2022-11-29T05:31:06.696Z,14.50
2022-11-29T05:32:06.663Z,11.80
2022-11-29T05:33:06.674Z,5.80
2022-11-29T05:34:06.667Z,6.00
2022-11-29T05:35:06.693Z,6.30
2022-11-29T05:36:06.683Z,11.30
2022-11-29T05:37:06.689Z,15.00
2022-11-29T05:38:06.687Z,18.90
2022-11-29T05:39:06.694Z,5.60
2022-11-29T05:40:06.696Z,3.90
2022-11-29T05:41:06.804Z,3.10
2022-11-29T05:42:06.704Z,3.30
2022-11-29T05:43:06.734Z,2.70
2022-11-29T05:44:06.714Z,2.70
2022-11-29T05:45:06.720Z,2.50
2022-11-29T05:46:06.751Z,2.40
2022-11-29T05:47:06.736Z,2.70
2022-11-29T05:48:06.731Z,2.30
2022-11-29T05:49:06.742Z,2.60
2022-11-29T05:50:06.742Z,2.50
2022-11-29T05:51:06.747Z,4.50
2022-11-29T05:52:06.752Z,2.80
2022-11-29T05:53:06.756Z,7.60
2022-11-29T05:54:06.776Z,7.80
2022-11-29T05:55:06.775Z,5.50
2022-11-29T05:56:06.768Z,5.40
2022-11-29T05:57:06.773Z,6.30
2022-11-29T05:58:06.774Z,5.30
2022-11-29T05:59:06.810Z,3.80
2022-11-29T06:00:06.783Z,4.00
2022-11-29T06:01:06.793Z,3.30
2022-11-29T06:02:06.807Z,3.50
2022-11-29T06:03:06.887Z,2.90
2022-11-29T06:04:11.677Z,3.00
2022-11-29T06:05:06.809Z,3.30
2022-11-29T06:06:06.811Z,4.00
2022-11-29T06:07:06.819Z,3.30
2022-11-29T06:08:06.822Z,4.10
2022-11-29T06:09:06.830Z,3.40
2022-11-29T06:10:06.828Z,2.70
2022-11-29T06:11:06.837Z,2.30
2022-11-29T06:12:06.851Z,2.40
2022-11-29T06:13:06.842Z,2.40
2022-11-29T06:14:06.844Z,3.30
2022-11-29T06:15:06.875Z,5.00
2022-11-29T06:16:06.923Z,2.40
2022-11-29T06:17:06.863Z,5.90
2022-11-29T06:18:06.862Z,13.40
2022-11-29T06:19:06.887Z,27.00
2022-11-29T06:20:06.872Z,23.80
2022-11-29T06:21:06.886Z,26.00
2022-11-29T06:22:06.880Z,8.50
2022-11-29T06:23:06.892Z,5.40
2022-11-29T06:24:06.889Z,3.90
2022-11-29T06:25:06.901Z,2.70
2022-11-29T06:26:06.898Z,2.50
2022-11-29T06:27:06.904Z,2.40
2022-11-29T06:28:06.915Z,6.20
2022-11-29T06:29:06.917Z,5.40
2022-11-29T06:30:06.925Z,5.70
2022-11-29T06:31:06.963Z,8.10
2022-11-29T06:32:06.938Z,2.80
2022-11-29T06:33:06.929Z,2.50
2022-11-29T06:34:06.933Z,4.60
2022-11-29T06:35:06.942Z,2.20
2022-11-29T06:36:06.943Z,2.50
2022-11-29T06:37:06.962Z,2.80
2022-11-29T06:38:06.947Z,3.70
2022-11-29T06:39:06.958Z,2.30
2022-11-29T06:40:06.957Z,1.90
2022-11-29T06:41:06.964Z,1.90
2022-11-29T06:42:06.971Z,1.70
2022-11-29T06:43:06.973Z,1.30
2022-11-29T06:44:06.976Z,1.70
2022-11-29T06:45:06.982Z,1.60
2022-11-29T06:46:06.985Z,1.50
2022-11-29T06:47:07.008Z,1.80
2022-11-29T06:48:06.993Z,3.90
2022-11-29T06:49:07.020Z,9.30
2022-11-29T06:50:07.013Z,2.40
2022-11-29T06:51:07.009Z,4.80
2022-11-29T06:52:07.013Z,5.10
2022-11-29T06:53:07.021Z,2.90
2022-11-29T06:54:07.019Z,5.40
2022-11-29T06:55:07.034Z,3.50
2022-11-29T06:56:07.028Z,1.80
2022-11-29T06:57:07.032Z,1.50
2022-11-29T06:58:07.037Z,1.40
2022-11-29T06:59:07.049Z,5.70
2022-11-29T07:00:07.045Z,2.00
2022-11-29T07:01:07.232Z,2.60
2022-11-29T07:02:07.115Z,1.80
2022-11-29T07:03:07.077Z,4.30
2022-11-29T07:04:07.061Z,7.10
2022-11-29T07:05:07.068Z,1.50
2022-11-29T07:06:07.071Z,5.90
2022-11-29T07:07:07.079Z,15.00
2022-11-29T07:08:07.079Z,12.10
2022-11-29T07:09:07.088Z,18.30
2022-11-29T07:10:10.666Z,9.60
2022-11-29T07:11:07.096Z,3.70
2022-11-29T07:12:07.098Z,11.00
2022-11-29T07:13:07.103Z,7.40
2022-11-29T07:14:07.205Z,2.80
2022-11-29T07:15:07.113Z,7.10
2022-11-29T07:16:07.131Z,11.20
2022-11-29T07:17:07.120Z,5.20
2022-11-29T07:18:07.124Z,4.60
2022-11-29T07:19:07.154Z,3.70
2022-11-29T07:20:07.131Z,3.10
2022-11-29T07:21:07.137Z,4.90
2022-11-29T07:22:07.140Z,4.00
2022-11-29T07:23:07.148Z,3.90
2022-11-29T07:24:07.158Z,7.80
2022-11-29T07:25:07.157Z,2.70
2022-11-29T07:26:07.155Z,1.90
2022-11-29T07:27:07.166Z,1.50
2022-11-29T07:28:07.166Z,1.40
2022-11-29T07:29:07.173Z,1.40
2022-11-29T07:30:07.179Z,1.30
2022-11-29T07:31:07.230Z,1.30
2022-11-29T07:32:07.184Z,1.10
2022-11-29T07:33:07.194Z,1.70
2022-11-29T07:34:07.190Z,3.10
2022-11-29T07:35:07.221Z,1.50
2022-11-29T07:36:07.202Z,1.30
2022-11-29T07:37:07.205Z,1.40
2022-11-29T07:38:07.208Z,1.90
2022-11-29T07:39:07.217Z,4.60
2022-11-29T07:40:07.216Z,3.50
2022-11-29T07:41:07.345Z,1.80
2022-11-29T07:42:07.226Z,1.50
2022-11-29T07:43:07.233Z,1.00
2022-11-29T07:44:07.236Z,1.70
2022-11-29T07:45:07.242Z,1.10
2022-11-29T07:46:07.255Z,0.90
2022-11-29T07:47:07.249Z,1.40
2022-11-29T07:48:07.252Z,2.90
2022-11-29T07:49:07.261Z,2.70
2022-11-29T07:50:07.263Z,2.60
2022-11-29T07:51:07.288Z,4.00
2022-11-29T07:52:07.274Z,5.50
2022-11-29T07:53:07.278Z,2.80
2022-11-29T07:54:07.279Z,3.30
2022-11-29T07:55:07.289Z,8.30
2022-11-29T07:56:07.287Z,7.50
2022-11-29T07:57:07.296Z,8.20
2022-11-29T07:58:07.294Z,7.80
2022-11-29T07:59:07.357Z,4.40
2022-11-29T08:00:07.403Z,5.30
2022-11-29T08:01:07.376Z,3.70
2022-11-29T08:02:11.696Z,1.30
2022-11-29T08:03:07.320Z,1.30
2022-11-29T08:04:07.322Z,1.00
2022-11-29T08:05:07.329Z,0.90
2022-11-29T08:06:07.329Z,0.80
2022-11-29T08:07:07.359Z,0.90
2022-11-29T08:08:07.341Z,0.80
2022-11-29T08:09:07.346Z,0.70
2022-11-29T08:10:07.346Z,1.00
2022-11-29T08:11:07.371Z,1.80
2022-11-29T08:12:07.361Z,5.40
2022-11-29T08:13:07.362Z,4.20
2022-11-29T08:14:07.381Z,2.80
2022-11-29T08:15:07.374Z,1.80
2022-11-29T08:16:07.398Z,3.90
2022-11-29T08:17:07.382Z,1.90
2022-11-29T08:18:07.379Z,4.70
2022-11-29T08:19:07.417Z,3.70
2022-11-29T08:20:07.391Z,5.10
2022-11-29T08:21:07.402Z,2.30
2022-11-29T08:22:07.398Z,5.90
2022-11-29T08:23:07.425Z,13.70
2022-11-29T08:24:07.410Z,8.20
2022-11-29T08:25:07.414Z,14.00
2022-11-29T08:26:07.415Z,8.90
2022-11-29T08:27:07.426Z,7.90
2022-11-29T08:28:07.425Z,10.30
2022-11-29T08:29:07.432Z,11.80
2022-11-29T08:30:07.434Z,6.80
2022-11-29T08:31:07.440Z,8.40
2022-11-29T08:32:07.444Z,5.50
2022-11-29T08:33:07.448Z,2.20
2022-11-29T08:34:07.451Z,3.60
2022-11-29T08:35:07.468Z,4.00
2022-11-29T08:36:07.463Z,3.40
2022-11-29T08:37:07.472Z,4.00
2022-11-29T08:38:07.467Z,3.20
2022-11-29T08:39:09.490Z,6.80
2022-11-29T08:40:07.483Z,4.60
2022-11-29T08:41:07.487Z,7.00
2022-11-29T08:42:07.487Z,5.30
2022-11-29T08:43:07.594Z,10.90
2022-11-29T08:44:07.500Z,8.30
2022-11-29T08:45:07.498Z,7.10
2022-11-29T08:46:07.592Z,12.20
2022-11-29T08:47:07.511Z,7.60
2022-11-29T08:48:07.528Z,7.80
2022-11-29T08:49:07.518Z,12.10
2022-11-29T08:50:07.526Z,10.60
2022-11-29T08:51:07.528Z,5.90
2022-11-29T08:52:07.535Z,8.50
2022-11-29T08:53:07.544Z,5.70
2022-11-29T08:54:07.545Z,5.30
2022-11-29T08:55:07.568Z,6.70
2022-11-29T08:56:31.932Z,3.40
2022-11-29T08:58:07.561Z,7.40
2022-11-29T08:59:07.563Z,6.30
2022-11-29T09:00:07.570Z,3.50
2022-11-29T09:01:07.587Z,4.30
2022-11-29T09:02:07.604Z,7.60
2022-11-29T09:03:07.581Z,9.50
2022-11-29T09:04:07.595Z,7.50
2022-11-29T09:05:07.591Z,6.70
2022-11-29T09:06:12.050Z,7.50
2022-11-29T09:07:07.602Z,8.00
2022-11-29T09:08:07.609Z,8.60
2022-11-29T09:09:07.610Z,10.10
2022-11-29T09:10:07.617Z,11.00
2022-11-29T09:11:07.643Z,10.00
2022-11-29T09:12:07.625Z,6.90
2022-11-29T09:13:07.626Z,4.20
2022-11-29T09:14:07.637Z,2.40
2022-11-29T09:15:07.636Z,3.60
2022-11-29T09:16:07.677Z,5.70
2022-11-29T09:17:07.645Z,1.90
2022-11-29T09:18:07.655Z,2.20
2022-11-29T09:19:07.654Z,3.30
2022-11-29T09:20:07.665Z,4.60
2022-11-29T09:21:07.662Z,6.00
2022-11-29T09:22:07.670Z,5.00
2022-11-29T09:23:07.684Z,7.60
2022-11-29T09:24:07.684Z,6.50
2022-11-29T09:25:07.681Z,7.90
2022-11-29T09:26:07.716Z,11.40
2022-11-29T09:27:07.713Z,8.60
2022-11-29T09:28:07.700Z,7.00
2022-11-29T09:29:07.702Z,9.50
2022-11-29T09:30:07.711Z,7.40
2022-11-29T09:31:07.723Z,4.90
2022-11-29T09:32:07.799Z,6.70
2022-11-29T09:33:07.719Z,9.20
2022-11-29T09:34:07.731Z,2.30
2022-11-29T09:35:07.733Z,3.50
2022-11-29T09:36:07.740Z,2.70
2022-11-29T09:37:07.738Z,1.20
2022-11-29T09:38:07.747Z,2.40
2022-11-29T09:39:07.746Z,1.00
2022-11-29T09:40:07.755Z,1.40
2022-11-29T09:41:07.777Z,3.80
2022-11-29T09:42:07.766Z,1.60
2022-11-29T09:43:07.784Z,1.20
2022-11-29T09:44:07.774Z,0.80
2022-11-29T09:45:07.778Z,2.90
2022-11-29T09:46:07.814Z,4.40
2022-11-29T09:47:07.785Z,11.20
2022-11-29T09:48:07.793Z,2.80
2022-11-29T09:49:07.796Z,6.10
2022-11-29T09:50:07.803Z,7.60
2022-11-29T09:51:07.804Z,9.80
2022-11-29T09:52:07.814Z,11.10
2022-11-29T09:53:07.812Z,8.80
2022-11-29T09:54:07.821Z,5.90
2022-11-29T09:55:07.823Z,12.10
2022-11-29T09:56:07.851Z,7.60
2022-11-29T09:57:10.840Z,2.60
2022-11-29T09:58:07.839Z,5.30
2022-11-29T09:59:07.866Z,4.00
2022-11-29T10:00:07.852Z,2.40
2022-11-29T10:01:07.873Z,1.40
2022-11-29T10:02:07.905Z,1.40
2022-11-29T10:03:07.863Z,2.60
2022-11-29T10:04:07.871Z,1.70
2022-11-29T10:05:07.873Z,0.90
2022-11-29T10:06:07.877Z,2.30
2022-11-29T10:07:07.880Z,5.50
2022-11-29T10:08:07.886Z,4.20
2022-11-29T10:09:07.891Z,1.10
2022-11-29T10:10:07.901Z,1.90
2022-11-29T10:11:07.902Z,5.00
2022-11-29T10:12:07.908Z,3.30
2022-11-29T10:13:07.908Z,2.50
2022-11-29T10:14:07.917Z,2.50
2022-11-29T10:15:07.941Z,3.30
2022-11-29T10:16:07.983Z,4.20
2022-11-29T10:17:07.931Z,3.70
2022-11-29T10:18:07.937Z,1.10
2022-11-29T10:19:07.944Z,3.30
2022-11-29T10:20:07.951Z,6.60
2022-11-29T10:21:07.946Z,3.70
2022-11-29T10:22:07.955Z,5.40
2022-11-29T10:23:07.960Z,6.30
2022-11-29T10:24:07.969Z,6.50
2022-11-29T10:25:07.967Z,1.50
2022-11-29T10:26:08.007Z,4.90
2022-11-29T10:27:07.979Z,7.50
2022-11-29T10:28:07.987Z,6.90
2022-11-29T10:29:07.987Z,7.60
2022-11-29T10:30:07.999Z,4.30
2022-11-29T10:31:08.079Z,5.20
2022-11-29T10:32:10.383Z,4.90
2022-11-29T10:33:08.010Z,0.80
2022-11-29T10:34:08.019Z,0.60
2022-11-29T10:35:08.020Z,0.60
2022-11-29T10:36:08.032Z,0.60
2022-11-29T10:37:08.029Z,1.60
2022-11-29T10:38:29.640Z,9.10
2022-11-29T10:39:14.202Z,12.40
2022-11-29T10:40:08.079Z,6.80
2022-11-29T10:41:08.055Z,4.50
2022-11-29T10:42:08.060Z,4.10
2022-11-29T10:43:08.063Z,3.60
2022-11-29T10:44:08.073Z,4.40
2022-11-29T10:45:08.091Z,3.40
2022-11-29T10:46:08.092Z,4.10
2022-11-29T10:47:11.057Z,3.10
2022-11-29T10:48:08.103Z,4.00
2022-11-29T10:49:08.096Z,6.50
2022-11-29T10:50:08.107Z,7.60
2022-11-29T10:51:08.106Z,6.90
2022-11-29T10:52:08.114Z,2.80
2022-11-29T10:53:08.117Z,6.30
2022-11-29T10:54:08.128Z,5.60
2022-11-29T10:55:08.128Z,5.10
2022-11-29T10:56:08.139Z,3.30
2022-11-29T10:57:08.139Z,6.80
2022-11-29T10:58:08.158Z,5.90
2022-11-29T10:59:08.154Z,7.30
2022-11-29T11:00:08.160Z,5.20
2022-11-29T11:01:08.416Z,3.80
2022-11-29T11:02:08.177Z,4.60
2022-11-29T11:03:08.199Z,6.80
2022-11-29T11:04:08.181Z,5.10
2022-11-29T11:05:08.196Z,6.00
2022-11-29T11:06:08.193Z,6.70
2022-11-29T11:07:08.195Z,3.50
2022-11-29T11:08:08.206Z,3.50
2022-11-29T11:09:08.206Z,1.10
2022-11-29T11:10:08.213Z,0.70
2022-11-29T11:11:08.221Z,0.60
2022-11-29T11:12:08.226Z,1.20
2022-11-29T11:13:08.230Z,1.10
2022-11-29T11:14:08.239Z,1.80
2022-11-29T11:15:08.241Z,3.00
2022-11-29T11:16:08.267Z,6.10
2022-11-29T11:17:08.276Z,7.60
2022-11-29T11:18:08.262Z,7.60
2022-11-29T11:19:08.297Z,5.20
2022-11-29T11:20:08.276Z,8.80
2022-11-29T11:21:08.275Z,7.50
2022-11-29T11:22:08.286Z,10.10
2022-11-29T11:23:08.288Z,10.50
2022-11-29T11:24:08.299Z,10.60
2022-11-29T11:25:08.300Z,8.30
2022-11-29T11:26:08.309Z,8.50
2022-11-29T11:27:08.315Z,8.60
2022-11-29T11:28:08.318Z,6.90
2022-11-29T11:29:08.327Z,6.90
2022-11-29T11:30:08.333Z,4.00
2022-11-29T11:31:08.536Z,5.70
2022-11-29T11:32:08.343Z,1.50
2022-11-29T11:33:08.346Z,2.80
2022-11-29T11:34:08.358Z,6.30
2022-11-29T11:35:08.372Z,6.70
2022-11-29T11:36:08.367Z,7.50
2022-11-29T11:37:08.379Z,7.60
2022-11-29T11:38:08.377Z,8.00
2022-11-29T11:39:08.381Z,7.00
2022-11-29T11:40:08.453Z,6.20
2022-11-29T11:41:08.405Z,4.10
2022-11-29T11:42:08.403Z,7.00
2022-11-29T11:43:08.399Z,8.60
2022-11-29T11:44:15.227Z,9.70
2022-11-29T11:45:08.412Z,9.90
2022-11-29T11:46:09.347Z,8.20
2022-11-29T11:47:08.424Z,10.50
2022-11-29T11:48:08.435Z,5.40
2022-11-29T11:49:08.434Z,4.40
2022-11-29T11:50:08.446Z,2.10
2022-11-29T11:51:08.465Z,3.30
2022-11-29T11:52:08.455Z,3.60
2022-11-29T11:53:08.460Z,2.20
2022-11-29T11:54:08.468Z,3.10
2022-11-29T11:55:08.474Z,5.00
2022-11-29T11:56:08.480Z,9.30
2022-11-29T11:57:08.482Z,5.30
2022-11-29T11:58:10.568Z,7.30
2022-11-29T11:59:08.492Z,7.30
2022-11-29T12:00:08.505Z,4.10
2022-11-29T12:01:08.502Z,3.00
2022-11-29T12:02:08.558Z,4.10
2022-11-29T12:03:08.704Z,10.00
2022-11-29T12:04:08.526Z,15.50
2022-11-29T12:05:08.556Z,6.70
2022-11-29T12:06:08.539Z,9.20
2022-11-29T12:07:08.559Z,10.70
2022-11-29T12:08:08.977Z,3.80
2022-11-29T12:09:08.567Z,6.50
2022-11-29T12:10:08.581Z,9.00
2022-11-29T12:11:08.558Z,15.40
2022-11-29T12:12:08.566Z,9.70
2022-11-29T12:13:08.570Z,9.00
2022-11-29T12:14:08.581Z,3.20
2022-11-29T12:15:08.580Z,1.80
2022-11-29T12:16:08.656Z,0.70
2022-11-29T12:17:08.594Z,1.10
2022-11-29T12:18:08.597Z,3.20
2022-11-29T12:19:08.614Z,3.50
2022-11-29T12:20:08.610Z,5.70
2022-11-29T12:21:08.612Z,4.10
2022-11-29T12:22:08.621Z,2.60
2022-11-29T12:23:08.643Z,3.90
2022-11-29T12:24:08.629Z,6.30
2022-11-29T12:25:08.632Z,4.70
2022-11-29T12:26:08.680Z,4.50
2022-11-29T12:27:08.655Z,1.90
2022-11-29T12:28:08.655Z,6.90
2022-11-29T12:29:08.653Z,8.60
2022-11-29T12:30:08.663Z,10.40
2022-11-29T12:31:08.713Z,6.80
2022-11-29T12:32:08.676Z,7.10
2022-11-29T12:33:08.676Z,6.90
2022-11-29T12:34:08.709Z,7.30
2022-11-29T12:35:08.685Z,9.40
2022-11-29T12:36:08.691Z,7.80
2022-11-29T12:37:08.694Z,7.80
2022-11-29T12:38:08.703Z,5.30
2022-11-29T12:39:08.722Z,4.90
2022-11-29T12:40:08.715Z,5.10
2022-11-29T12:41:08.735Z,5.10
2022-11-29T12:42:08.755Z,3.10
2022-11-29T12:43:08.729Z,2.50
2022-11-29T12:44:08.740Z,3.20
2022-11-29T12:45:08.736Z,5.40
2022-11-29T12:46:08.930Z,5.50
2022-11-29T12:47:34.713Z,7.20
2022-11-29T12:48:08.766Z,7.00
2022-11-29T12:49:08.756Z,5.10
2022-11-29T12:50:08.767Z,7.50
2022-11-29T12:51:08.769Z,7.10
2022-11-29T12:52:08.777Z,6.30
2022-11-29T12:53:08.790Z,6.70
2022-11-29T12:54:08.828Z,8.80
2022-11-29T12:55:08.815Z,5.70
2022-11-29T12:56:08.802Z,6.90
2022-11-29T12:57:08.801Z,7.30
2022-11-29T12:58:08.810Z,7.50
2022-11-29T12:59:08.813Z,10.10
2022-11-29T13:00:08.817Z,6.50
2022-11-29T13:01:08.823Z,11.80
2022-11-29T13:02:08.898Z,2.50
2022-11-29T13:03:08.890Z,2.20
2022-11-29T13:04:08.837Z,1.20
2022-11-29T13:05:08.849Z,1.00
2022-11-29T13:06:08.850Z,0.90
2022-11-29T13:07:08.857Z,0.90
2022-11-29T13:08:08.858Z,0.80
2022-11-29T13:09:08.870Z,0.80
2022-11-29T13:10:12.495Z,0.80
2022-11-29T13:11:08.900Z,0.80
2022-11-29T13:12:08.880Z,0.90
2022-11-29T13:13:08.889Z,0.90
2022-11-29T13:14:40.878Z,1.70
2022-11-29T13:15:08.901Z,2.70
2022-11-29T13:16:08.942Z,4.10